createdAt,value
2019-02-16T00:00:21.335Z,46.47
2019-02-16T00:01:21.317Z,45.71
2019-02-16T00:02:21.305Z,44.57
2019-02-16T00:03:21.289Z,45.14
2019-02-16T00:04:21.267Z,46.19
2019-02-16T00:05:21.253Z,46.30
2019-02-16T00:06:21.240Z,43.27
2019-02-16T00:07:21.229Z,42.51
2019-02-16T00:08:21.204Z,42.79
2019-02-16T00:09:21.194Z,42.60
2019-02-16T00:10:21.178Z,43.55
2019-02-16T00:11:21.159Z,44.98
2019-02-16T00:12:21.144Z,46.11
2019-02-16T00:13:21.127Z,47.25
2019-02-16T00:14:21.110Z,46.56
2019-02-16T00:15:21.095Z,46.09
2019-02-16T00:16:21.086Z,45.62
2019-02-16T00:17:21.063Z,45.52
2019-02-16T00:18:22.926Z,44.76
2019-02-16T00:19:21.035Z,45.52
2019-02-16T00:20:21.057Z,46.09
2019-02-16T00:21:21.005Z,46.28
2019-02-16T00:22:20.987Z,47.13
2019-02-16T00:23:20.973Z,47.42
2019-02-16T00:24:20.955Z,46.37
2019-02-16T00:25:20.941Z,46.47
2019-02-16T00:26:20.922Z,46.66
2019-02-16T00:27:20.911Z,47.80
2019-02-16T00:28:20.889Z,47.04
2019-02-16T00:29:20.881Z,46.19
2019-02-16T00:30:20.865Z,45.52
2019-02-16T00:31:20.846Z,46.47
2019-02-16T00:32:20.826Z,46.47
2019-02-16T00:33:20.814Z,46.28
2019-02-16T00:34:20.802Z,46.28
2019-02-16T00:35:20.788Z,46.00
2019-02-16T00:36:20.771Z,47.52
2019-02-16T00:37:20.767Z,47.52
2019-02-16T00:38:20.735Z,46.28
2019-02-16T00:39:20.721Z,46.66
2019-02-16T00:40:20.703Z,47.32
2019-02-16T00:41:20.701Z,47.80
2019-02-16T00:42:20.673Z,47.71
2019-02-16T00:43:20.661Z,48.46
2019-02-16T00:44:20.638Z,49.13
2019-02-16T00:45:20.628Z,48.94
2019-02-16T00:46:20.607Z,48.65
2019-02-16T00:47:20.596Z,48.36
2019-02-16T00:48:20.578Z,48.18
2019-02-16T00:49:20.558Z,48.27
2019-02-16T00:50:20.547Z,48.36
2019-02-16T00:51:20.527Z,48.18
2019-02-16T00:52:20.512Z,48.46
2019-02-16T00:53:20.492Z,48.65
2019-02-16T00:54:20.481Z,46.75
2019-02-16T00:55:20.465Z,44.95
2019-02-16T00:56:20.457Z,44.85
2019-02-16T00:57:20.433Z,44.76
2019-02-16T00:58:20.419Z,45.24
2019-02-16T00:59:20.399Z,47.89
2019-02-16T01:00:20.381Z,49.69
2019-02-16T01:01:20.375Z,50.93
2019-02-16T01:02:20.355Z,52.16
2019-02-16T01:03:20.341Z,52.16
2019-02-16T01:04:20.324Z,51.68
2019-02-16T01:05:20.345Z,50.43
2019-02-16T01:06:20.296Z,49.32
2019-02-16T01:07:20.273Z,48.65
2019-02-16T01:08:20.259Z,47.42
2019-02-16T01:09:20.246Z,46.56
2019-02-16T01:10:20.225Z,47.61
2019-02-16T01:11:20.216Z,48.65
2019-02-16T01:12:20.198Z,50.17
2019-02-16T01:13:20.179Z,50.55
2019-02-16T01:14:20.163Z,50.83
2019-02-16T01:15:20.145Z,51.18
2019-02-16T01:16:20.136Z,50.99
2019-02-16T01:17:20.112Z,49.38
2019-02-16T01:18:20.098Z,47.96
2019-02-16T01:19:20.087Z,47.42
2019-02-16T01:20:20.067Z,46.66
2019-02-16T01:21:22.814Z,46.19
2019-02-16T01:22:20.032Z,47.32
2019-02-16T01:23:20.014Z,47.71
2019-02-16T01:24:20.002Z,48.84
2019-02-16T01:25:19.986Z,49.03
2019-02-16T01:26:19.972Z,49.13
2019-02-16T01:27:19.955Z,50.07
2019-02-16T01:28:19.937Z,50.55
2019-02-16T01:29:19.925Z,50.93
2019-02-16T01:30:19.905Z,51.66
2019-02-16T01:31:19.888Z,52.04
2019-02-16T01:32:19.870Z,52.42
2019-02-16T01:33:19.861Z,52.23
2019-02-16T01:34:19.843Z,51.66
2019-02-16T01:35:19.833Z,49.48
2019-02-16T01:36:19.809Z,47.49
2019-02-16T01:37:19.795Z,46.83
2019-02-16T01:38:19.779Z,46.83
2019-02-16T01:39:19.763Z,47.20
2019-02-16T01:40:19.781Z,47.02
2019-02-16T01:41:19.729Z,47.20
2019-02-16T01:42:19.715Z,47.39
2019-02-16T01:43:19.696Z,47.96
2019-02-16T01:44:19.686Z,48.82
2019-02-16T01:45:19.662Z,49.29
2019-02-16T01:46:19.646Z,47.39
2019-02-16T01:47:19.633Z,46.54
2019-02-16T01:48:19.615Z,46.35
2019-02-16T01:49:19.602Z,46.92
2019-02-16T01:50:19.586Z,46.92
2019-02-16T01:51:19.578Z,46.83
2019-02-16T01:52:19.551Z,47.39
2019-02-16T01:53:19.533Z,47.77
2019-02-16T01:54:19.526Z,47.20
2019-02-16T01:55:19.511Z,46.45
2019-02-16T01:56:19.490Z,47.58
2019-02-16T01:57:19.467Z,49.01
2019-02-16T01:58:19.457Z,49.29
2019-02-16T01:59:19.440Z,49.86
2019-02-16T02:00:19.420Z,48.82
2019-02-16T02:01:19.410Z,47.30
2019-02-16T02:02:19.390Z,44.93
2019-02-16T02:03:19.374Z,42.11
2019-02-16T02:04:19.358Z,40.50
2019-02-16T02:05:19.343Z,40.02
2019-02-16T02:06:19.325Z,40.40
2019-02-16T02:07:19.309Z,41.06
2019-02-16T02:08:19.294Z,42.11
2019-02-16T02:09:19.277Z,42.49
2019-02-16T02:10:19.263Z,43.43
2019-02-16T02:11:19.243Z,43.82
2019-02-16T02:12:19.228Z,42.30
2019-02-16T02:13:19.209Z,42.20
2019-02-16T02:14:19.193Z,42.30
2019-02-16T02:15:19.180Z,42.58
2019-02-16T02:16:19.160Z,42.39
2019-02-16T02:17:19.147Z,42.30
2019-02-16T02:18:19.130Z,43.15
2019-02-16T02:19:19.118Z,43.70
2019-02-16T02:20:19.098Z,43.98
2019-02-16T02:21:19.082Z,45.21
2019-02-16T02:22:19.064Z,46.35
2019-02-16T02:23:19.052Z,46.35
2019-02-16T02:24:19.034Z,46.07
2019-02-16T02:25:19.019Z,45.78
2019-02-16T02:26:19.009Z,45.97
2019-02-16T02:27:18.985Z,46.83
2019-02-16T02:28:18.969Z,46.26
2019-02-16T02:29:18.957Z,46.64
2019-02-16T02:30:18.938Z,48.34
2019-02-16T02:31:18.920Z,50.15
2019-02-16T02:32:18.906Z,51.28
2019-02-16T02:33:18.884Z,52.04
2019-02-16T02:34:18.873Z,50.52
2019-02-16T02:35:18.862Z,49.29
2019-02-16T02:36:18.846Z,48.15
2019-02-16T02:37:18.822Z,48.82
2019-02-16T02:38:18.812Z,48.54
2019-02-16T02:39:18.787Z,48.82
2019-02-16T02:40:18.779Z,48.82
2019-02-16T02:41:18.758Z,49.10
2019-02-16T02:42:18.735Z,51.09
2019-02-16T02:43:18.736Z,50.71
2019-02-16T02:44:18.716Z,50.34
2019-02-16T02:45:18.693Z,49.86
2019-02-16T02:46:18.674Z,49.95
2019-02-16T02:47:18.658Z,50.05
2019-02-16T02:48:18.646Z,49.76
2019-02-16T02:49:18.625Z,49.95
2019-02-16T02:50:18.612Z,49.29
2019-02-16T02:52:18.600Z,47.58
2019-02-16T02:53:18.589Z,47.20
2019-02-16T02:54:18.564Z,47.77
2019-02-16T02:55:18.554Z,48.91
2019-02-16T02:56:18.539Z,50.34
2019-02-16T02:57:18.521Z,50.90
2019-02-16T02:58:39.511Z,51.18
2019-02-16T02:59:18.484Z,50.05
2019-02-16T03:00:18.471Z,50.34
2019-02-16T03:01:18.458Z,49.86
2019-02-16T03:02:18.441Z,50.62
2019-02-16T03:03:18.419Z,50.99
2019-02-16T03:04:39.408Z,51.57
2019-02-16T03:05:18.393Z,51.66
2019-02-16T03:06:18.378Z,50.71
2019-02-16T03:07:18.353Z,48.34
2019-02-16T03:08:18.341Z,47.49
2019-02-16T03:09:18.327Z,47.49
2019-02-16T03:10:39.312Z,47.39
2019-02-16T03:11:18.284Z,47.68
2019-02-16T03:12:18.282Z,49.57
2019-02-16T03:13:18.255Z,50.90
2019-02-16T03:14:18.244Z,50.71
2019-02-16T03:15:18.224Z,50.71
2019-02-16T03:16:39.208Z,50.90
2019-02-16T03:17:18.209Z,50.90
2019-02-16T03:18:18.177Z,47.39
2019-02-16T03:19:18.157Z,44.27
2019-02-16T03:20:18.142Z,43.23
2019-02-16T03:21:18.128Z,43.51
2019-02-16T03:22:39.120Z,44.74
2019-02-16T03:23:18.102Z,44.74
2019-02-16T03:24:18.088Z,44.17
2019-02-16T03:25:18.062Z,44.55
2019-02-16T03:26:18.120Z,44.08
2019-02-16T03:27:18.032Z,45.03
2019-02-16T03:28:39.014Z,45.88
2019-02-16T03:29:17.995Z,46.54
2019-02-16T03:30:17.987Z,46.35
2019-02-16T03:31:17.971Z,44.08
2019-02-16T03:32:17.943Z,44.17
2019-02-16T03:33:17.925Z,43.98
2019-02-16T03:34:38.917Z,45.03
2019-02-16T03:35:17.897Z,46.35
2019-02-16T03:36:17.883Z,48.34
2019-02-16T03:37:17.873Z,49.19
2019-02-16T03:38:17.847Z,49.48
2019-02-16T03:39:17.831Z,48.44
2019-02-16T03:40:38.824Z,47.87
2019-02-16T03:41:17.796Z,48.15
2019-02-16T03:42:17.781Z,49.10
2019-02-16T03:43:17.787Z,50.24
2019-02-16T03:44:17.755Z,50.05
2019-02-16T03:45:17.735Z,49.10
2019-02-16T03:46:38.725Z,47.87
2019-02-16T03:47:17.706Z,48.06
2019-02-16T03:48:17.687Z,49.29
2019-02-16T03:49:17.671Z,47.49
2019-02-16T03:50:17.655Z,45.21
2019-02-16T03:51:17.634Z,45.40
2019-02-16T03:52:38.626Z,45.88
2019-02-16T03:53:17.602Z,46.23
2019-02-16T03:54:17.582Z,47.18
2019-02-16T03:55:17.566Z,47.77
2019-02-16T03:56:17.554Z,49.27
2019-02-16T03:57:17.541Z,48.89
2019-02-16T03:58:38.525Z,49.10
2019-02-16T03:59:17.505Z,48.98
2019-02-16T04:00:17.494Z,47.56
2019-02-16T04:01:17.487Z,46.80
2019-02-16T04:02:17.459Z,46.42
2019-02-16T04:03:17.444Z,46.52
2019-02-16T04:04:38.425Z,47.37
2019-02-16T04:05:17.415Z,48.98
2019-02-16T04:06:17.388Z,48.22
2019-02-16T04:07:17.377Z,47.37
2019-02-16T04:08:17.352Z,47.75
2019-02-16T04:09:17.337Z,47.75
2019-02-16T04:10:38.324Z,47.75
2019-02-16T04:11:17.308Z,47.85
2019-02-16T04:12:17.289Z,47.66
2019-02-16T04:13:17.275Z,48.03
2019-02-16T04:14:17.261Z,48.60
2019-02-16T04:15:19.762Z,49.36
2019-02-16T04:16:38.218Z,48.89
2019-02-16T04:17:17.207Z,47.75
2019-02-16T04:18:17.184Z,47.85
2019-02-16T04:19:17.257Z,48.41
2019-02-16T04:20:17.156Z,48.79
2019-02-16T04:21:17.142Z,49.27
2019-02-16T04:22:38.123Z,49.46
2019-02-16T04:23:17.107Z,49.84
2019-02-16T04:24:17.091Z,49.93
2019-02-16T04:25:17.078Z,48.79
2019-02-16T04:26:17.118Z,48.98
2019-02-16T04:27:17.041Z,47.94
2019-02-16T04:28:38.031Z,46.71
2019-02-16T04:29:18.783Z,46.71
2019-02-16T04:30:17.003Z,47.47
2019-02-16T04:31:16.979Z,47.66
2019-02-16T04:32:16.954Z,47.75
2019-02-16T04:33:16.937Z,47.47
2019-02-16T04:34:37.924Z,47.09
2019-02-16T04:35:16.904Z,47.37
2019-02-16T04:36:16.885Z,46.80
2019-02-16T04:37:16.868Z,46.14
2019-02-16T04:38:16.854Z,46.33
2019-02-16T04:39:16.840Z,46.14
2019-02-16T04:40:37.827Z,46.71
2019-02-16T04:41:16.809Z,47.47
2019-02-16T04:42:16.790Z,47.66
2019-02-16T04:43:16.776Z,47.56
2019-02-16T04:44:16.759Z,47.37
2019-02-16T04:45:16.737Z,46.71
2019-02-16T04:46:37.729Z,46.33
2019-02-16T04:47:16.708Z,46.61
2019-02-16T04:48:16.691Z,47.28
2019-02-16T04:49:16.675Z,47.28
2019-02-16T04:50:16.661Z,46.90
2019-02-16T04:51:16.639Z,46.80
2019-02-16T04:52:37.624Z,47.34
2019-02-16T04:53:16.609Z,47.85
2019-02-16T04:54:16.593Z,48.41
2019-02-16T04:55:16.564Z,48.86
2019-02-16T04:56:16.551Z,48.79
2019-02-16T04:57:16.540Z,48.10
2019-02-16T04:58:37.522Z,47.47
2019-02-16T04:59:16.506Z,47.37
2019-02-16T05:00:16.491Z,48.03
2019-02-16T05:01:16.462Z,49.24
2019-02-16T05:02:16.454Z,50.49
2019-02-16T05:03:16.440Z,51.45
2019-02-16T05:04:37.422Z,50.97
2019-02-16T05:05:16.404Z,51.07
2019-02-16T05:06:16.388Z,50.21
2019-02-16T05:07:16.375Z,50.02
2019-02-16T05:08:16.355Z,50.78
2019-02-16T05:09:16.333Z,50.12
2019-02-16T05:10:37.325Z,49.08
2019-02-16T05:11:16.301Z,49.24
2019-02-16T05:12:16.281Z,49.93
2019-02-16T05:13:16.266Z,50.59
2019-02-16T05:14:16.248Z,52.29
2019-02-16T05:15:16.237Z,52.20
2019-02-16T05:16:37.218Z,52.11
2019-02-16T05:17:16.199Z,52.20
2019-02-16T05:18:16.185Z,52.18
2019-02-16T05:19:16.162Z,50.40
2019-02-16T05:20:16.146Z,48.98
2019-02-16T05:21:16.132Z,49.24
2019-02-16T05:22:44.295Z,49.55
2019-02-16T05:23:16.099Z,50.40
2019-02-16T05:24:16.104Z,51.35
2019-02-16T05:25:16.063Z,52.11
2019-02-16T05:26:16.045Z,52.01
2019-02-16T05:27:16.031Z,52.20
2019-02-16T05:28:37.016Z,51.54
2019-02-16T05:29:15.996Z,51.26
2019-02-16T05:30:15.983Z,51.26
2019-02-16T05:31:15.964Z,51.45
2019-02-16T05:32:15.950Z,49.84
2019-02-16T05:33:15.929Z,49.17
2019-02-16T05:34:36.910Z,48.89
2019-02-16T05:35:15.907Z,49.08
2019-02-16T05:36:15.882Z,49.65
2019-02-16T05:37:15.855Z,50.69
2019-02-16T05:38:15.846Z,50.97
2019-02-16T05:39:15.826Z,51.54
2019-02-16T05:40:36.813Z,52.20
2019-02-16T05:41:15.795Z,51.54
2019-02-16T05:42:15.770Z,50.31
2019-02-16T05:43:15.759Z,50.31
2019-02-16T05:44:15.742Z,50.21
2019-02-16T05:45:15.729Z,50.12
2019-02-16T05:46:36.711Z,50.12
2019-02-16T05:47:15.690Z,50.21
2019-02-16T05:48:15.677Z,50.49
2019-02-16T05:49:15.654Z,51.45
2019-02-16T05:50:15.640Z,51.16
2019-02-16T05:51:15.629Z,51.35
2019-02-16T05:52:36.609Z,51.54
2019-02-16T05:53:15.587Z,52.39
2019-02-16T05:54:15.570Z,52.20
2019-02-16T05:55:15.555Z,50.97
2019-02-16T05:56:15.540Z,50.59
2019-02-16T05:57:15.529Z,49.46
2019-02-16T05:58:36.517Z,48.98
2019-02-16T05:59:15.494Z,48.98
2019-02-16T06:00:15.469Z,50.12
2019-02-16T06:01:15.455Z,49.74
2019-02-16T06:02:15.429Z,49.17
2019-02-16T06:03:15.422Z,47.28
2019-02-16T06:04:36.408Z,46.04
2019-02-16T06:05:15.388Z,46.23
2019-02-16T06:06:15.372Z,45.67
2019-02-16T06:07:15.357Z,46.52
2019-02-16T06:08:15.338Z,45.57
2019-02-16T06:09:15.328Z,45.38
2019-02-16T06:10:36.305Z,46.14
2019-02-16T06:11:15.295Z,46.80
2019-02-16T06:12:15.277Z,47.56
2019-02-16T06:13:15.253Z,48.89
2019-02-16T06:14:15.239Z,49.46
2019-02-16T06:15:15.212Z,49.93
2019-02-16T06:16:36.203Z,50.49
2019-02-16T06:17:15.218Z,47.66
2019-02-16T06:18:15.172Z,46.04
2019-02-16T06:19:15.153Z,45.19
2019-02-16T06:20:15.133Z,46.14
2019-02-16T06:21:15.124Z,47.37
2019-02-16T06:22:36.106Z,47.94
2019-02-16T06:23:15.084Z,48.89
2019-02-16T06:24:15.068Z,49.27
2019-02-16T06:25:15.045Z,49.27
2019-02-16T06:26:15.040Z,49.27
2019-02-16T06:27:15.018Z,49.74
2019-02-16T06:28:36.003Z,50.02
2019-02-16T06:29:14.989Z,49.17
2019-02-16T06:30:14.978Z,47.28
2019-02-16T06:31:14.951Z,47.18
2019-02-16T06:32:14.933Z,45.95
2019-02-16T06:33:14.923Z,44.91
2019-02-16T06:34:35.899Z,44.93
2019-02-16T06:35:14.885Z,44.06
2019-02-16T06:36:14.867Z,43.79
2019-02-16T06:37:14.848Z,44.27
2019-02-16T06:38:14.840Z,44.65
2019-02-16T06:39:14.825Z,44.74
2019-02-16T06:40:35.799Z,44.17
2019-02-16T06:41:14.776Z,43.60
2019-02-16T06:42:14.760Z,43.51
2019-02-16T06:43:14.738Z,44.17
2019-02-16T06:44:14.730Z,45.31
2019-02-16T06:45:14.711Z,46.26
2019-02-16T06:46:35.692Z,47.39
2019-02-16T06:47:14.697Z,46.73
2019-02-16T06:48:14.660Z,46.54
2019-02-16T06:49:14.646Z,48.06
2019-02-16T06:50:14.630Z,49.10
2019-02-16T06:51:15.022Z,47.68
2019-02-16T06:52:35.596Z,46.73
2019-02-16T06:53:14.576Z,45.31
2019-02-16T06:54:14.558Z,44.65
2019-02-16T06:55:14.545Z,44.36
2019-02-16T06:56:14.537Z,43.51
2019-02-16T06:57:14.517Z,44.27
2019-02-16T06:58:35.497Z,44.74
2019-02-16T06:59:14.493Z,46.07
2019-02-16T07:00:14.461Z,46.16
2019-02-16T07:01:14.445Z,45.88
2019-02-16T07:02:14.427Z,45.03
2019-02-16T07:03:14.406Z,43.88
2019-02-16T07:04:35.392Z,43.13
2019-02-16T07:05:14.379Z,41.52
2019-02-16T07:06:14.360Z,42.39
2019-02-16T07:07:14.344Z,56.34
2019-02-16T07:08:14.329Z,55.19
2019-02-16T07:09:14.312Z,58.45
2019-02-16T07:10:35.304Z,55.04
2019-02-16T07:11:14.277Z,54.08
2019-02-16T07:12:14.275Z,51.52
2019-02-16T07:13:14.248Z,47.73
2019-02-16T07:14:14.237Z,48.11
2019-02-16T07:15:14.217Z,47.73
2019-02-16T07:16:35.199Z,46.78
2019-02-16T07:17:14.181Z,47.53
2019-02-16T07:18:14.167Z,47.34
2019-02-16T07:19:14.146Z,47.63
2019-02-16T07:20:14.122Z,47.44
2019-02-16T07:21:14.107Z,46.88
2019-02-16T07:22:35.096Z,46.00
2019-02-16T07:23:22.174Z,45.24
2019-02-16T07:24:14.059Z,45.05
2019-02-16T07:25:14.048Z,46.00
2019-02-16T07:26:14.036Z,46.28
2019-02-16T07:27:14.020Z,44.20
2019-02-16T07:28:35.015Z,44.29
2019-02-16T07:29:13.984Z,44.10
2019-02-16T07:30:13.969Z,44.95
2019-02-16T07:31:15.794Z,46.00
2019-02-16T07:32:13.933Z,46.28
2019-02-16T07:33:13.921Z,46.85
2019-02-16T07:34:34.901Z,47.71
2019-02-16T07:35:13.886Z,48.56
2019-02-16T07:36:13.865Z,47.89
2019-02-16T07:37:13.846Z,47.39
2019-02-16T07:38:13.834Z,46.83
2019-02-16T07:39:13.816Z,47.39
2019-02-16T07:40:34.802Z,46.83
2019-02-16T07:41:13.807Z,46.73
2019-02-16T07:42:13.770Z,47.30
2019-02-16T07:43:13.757Z,48.15
2019-02-16T07:44:13.739Z,49.01
2019-02-16T07:45:13.723Z,49.19
2019-02-16T07:46:34.702Z,49.76
2019-02-16T07:47:13.702Z,89.67
2019-02-16T07:48:13.671Z,99.99
2019-02-16T07:49:13.661Z,98.88
2019-02-16T07:50:13.645Z,71.13
2019-02-16T07:51:13.641Z,53.87
2019-02-16T07:52:34.606Z,45.21
2019-02-16T07:53:13.590Z,42.92
2019-02-16T07:54:13.566Z,41.85
2019-02-16T07:55:13.558Z,41.95
2019-02-16T07:56:13.552Z,42.31
2019-02-16T07:57:13.538Z,42.40
2019-02-16T07:58:34.594Z,42.69
2019-02-16T07:59:13.494Z,42.97
2019-02-16T08:00:13.478Z,43.05
2019-02-16T08:01:13.462Z,43.05
2019-02-16T08:02:13.452Z,41.81
2019-02-16T08:03:13.434Z,41.91
2019-02-16T08:04:34.421Z,41.53
2019-02-16T08:05:13.406Z,41.53
2019-02-16T08:06:13.393Z,41.34
2019-02-16T08:07:13.367Z,41.53
2019-02-16T08:08:13.352Z,41.91
2019-02-16T08:09:13.346Z,42.95
2019-02-16T08:10:34.329Z,43.05
2019-02-16T08:11:13.308Z,43.14
2019-02-16T08:12:13.292Z,43.52
2019-02-16T08:13:13.277Z,42.10
2019-02-16T08:14:13.260Z,41.36
2019-02-16T08:15:13.245Z,40.22
2019-02-16T08:16:34.232Z,40.69
2019-02-16T08:17:13.216Z,39.36
2019-02-16T08:18:13.204Z,38.89
2019-02-16T08:19:13.189Z,38.31
2019-02-16T08:20:13.174Z,38.51
2019-02-16T08:21:13.155Z,39.17
2019-02-16T08:22:34.152Z,39.74
2019-02-16T08:23:13.126Z,39.65
2019-02-16T08:24:13.108Z,40.05
2019-02-16T08:25:13.102Z,40.52
2019-02-16T08:26:13.080Z,40.14
2019-02-16T08:27:13.064Z,40.05
2019-02-16T08:28:34.053Z,39.95
2019-02-16T08:29:13.037Z,40.43
2019-02-16T08:30:13.028Z,40.45
2019-02-16T08:31:13.006Z,41.30
2019-02-16T08:32:12.996Z,40.83
2019-02-16T08:33:12.978Z,40.54
2019-02-16T08:34:33.972Z,40.92
2019-02-16T08:35:12.945Z,40.85
2019-02-16T08:36:12.946Z,40.18
2019-02-16T08:37:12.912Z,38.85
2019-02-16T08:38:12.904Z,38.37
2019-02-16T08:39:12.900Z,38.75
2019-02-16T08:40:33.886Z,38.85
2019-02-16T08:41:12.871Z,39.34
2019-02-16T08:42:12.852Z,39.42
2019-02-16T08:43:12.838Z,39.53
2019-02-16T08:44:12.823Z,39.92
2019-02-16T08:45:12.815Z,39.82
2019-02-16T08:46:33.801Z,39.73
2019-02-16T08:47:12.774Z,39.25
2019-02-16T08:48:12.768Z,38.87
2019-02-16T08:49:12.749Z,38.96
2019-02-16T08:50:12.739Z,37.92
2019-02-16T08:51:12.724Z,37.63
2019-02-16T08:52:33.715Z,38.41
2019-02-16T08:53:12.698Z,38.89
2019-02-16T08:54:12.684Z,38.98
2019-02-16T08:55:12.677Z,39.17
2019-02-16T08:56:12.680Z,38.60
2019-02-16T08:57:12.649Z,38.32
2019-02-16T08:58:33.644Z,37.46
2019-02-16T08:59:12.618Z,37.17
2019-02-16T09:00:12.606Z,36.60
2019-02-16T09:01:12.593Z,35.36
2019-02-16T09:02:12.580Z,34.41
2019-02-16T09:03:12.565Z,35.17
2019-02-16T09:04:33.564Z,36.79
2019-02-16T09:05:12.537Z,36.62
2019-02-16T09:06:12.527Z,36.52
2019-02-16T09:07:12.511Z,36.33
2019-02-16T09:08:12.499Z,36.62
2019-02-16T09:09:12.489Z,36.81
2019-02-16T09:10:33.481Z,36.81
2019-02-16T09:11:12.459Z,36.05
2019-02-16T09:12:12.446Z,36.24
2019-02-16T09:13:12.435Z,36.16
2019-02-16T09:14:12.421Z,36.16
2019-02-16T09:15:12.411Z,34.92
2019-02-16T09:16:33.398Z,33.20
2019-02-16T09:17:13.446Z,33.78
2019-02-16T09:18:12.368Z,34.16
2019-02-16T09:19:12.360Z,35.21
2019-02-16T09:20:12.348Z,35.60
2019-02-16T09:21:14.764Z,35.70
2019-02-16T09:22:33.322Z,35.51
2019-02-16T09:23:12.307Z,36.37
2019-02-16T09:24:12.296Z,36.37
2019-02-16T09:25:12.285Z,36.94
2019-02-16T09:26:12.269Z,36.56
2019-02-16T09:27:12.260Z,35.32
2019-02-16T09:28:33.249Z,35.43
2019-02-16T09:29:12.225Z,34.57
2019-02-16T09:30:12.229Z,33.91
2019-02-16T09:31:12.210Z,33.52
2019-02-16T09:32:13.252Z,33.91
2019-02-16T09:33:12.228Z,34.28
2019-02-16T09:34:33.180Z,34.09
2019-02-16T09:35:12.167Z,34.11
2019-02-16T09:36:12.155Z,34.40
2019-02-16T09:37:12.135Z,34.59
2019-02-16T09:38:12.126Z,34.59
2019-02-16T09:39:12.112Z,34.80
2019-02-16T09:40:33.106Z,34.80
2019-02-16T09:41:12.093Z,34.70
2019-02-16T09:42:12.076Z,34.42
2019-02-16T09:43:12.067Z,34.42
2019-02-16T09:44:12.050Z,34.61
2019-02-16T09:45:12.039Z,34.32
2019-02-16T09:46:33.146Z,34.80
2019-02-16T09:47:12.025Z,34.42
2019-02-16T09:48:12.001Z,33.95
2019-02-16T09:49:11.992Z,34.05
2019-02-16T09:50:11.983Z,33.86
2019-02-16T09:51:11.982Z,33.48
2019-02-16T09:52:32.981Z,33.95
2019-02-16T09:53:11.960Z,33.86
2019-02-16T09:54:11.947Z,33.78
2019-02-16T09:55:11.937Z,33.11
2019-02-16T09:56:11.934Z,33.30
2019-02-16T09:57:11.910Z,33.69
2019-02-16T09:58:32.906Z,33.20
2019-02-16T09:59:11.882Z,33.78
2019-02-16T10:00:13.817Z,33.40
2019-02-16T10:01:11.866Z,33.40
2019-02-16T10:02:11.898Z,33.59
2019-02-16T10:03:11.846Z,34.37
2019-02-16T10:04:32.844Z,34.18
2019-02-16T10:05:11.831Z,33.61
2019-02-16T10:06:11.818Z,32.17
2019-02-16T10:07:11.815Z,31.21
2019-02-16T10:08:11.792Z,31.21
2019-02-16T10:09:11.781Z,30.73
2019-02-16T10:10:32.775Z,30.83
2019-02-16T10:11:11.797Z,29.87
2019-02-16T10:12:11.766Z,30.93
2019-02-16T10:13:11.741Z,31.13
2019-02-16T10:14:11.731Z,31.23
2019-02-16T10:15:11.731Z,30.55
2019-02-16T10:16:32.720Z,30.55
2019-02-16T10:17:11.708Z,30.18
2019-02-16T10:18:11.690Z,29.80
2019-02-16T10:19:11.685Z,29.71
2019-02-16T10:20:11.676Z,29.42
2019-02-16T10:21:11.664Z,28.66
2019-02-16T10:22:32.661Z,28.46
2019-02-16T10:23:11.635Z,28.17
2019-02-16T10:24:17.628Z,27.33
2019-02-16T10:25:11.621Z,27.71
2019-02-16T10:26:11.611Z,27.52
2019-02-16T10:27:11.600Z,27.53
2019-02-16T10:28:32.601Z,27.53
2019-02-16T10:29:11.591Z,27.53
2019-02-16T10:30:11.574Z,27.63
2019-02-16T10:31:11.578Z,28.01
2019-02-16T10:32:11.568Z,27.05
2019-02-16T10:33:11.562Z,26.97
2019-02-16T10:34:32.541Z,26.20
2019-02-16T10:35:11.535Z,26.01
2019-02-16T10:36:11.524Z,25.72
2019-02-16T10:37:11.510Z,26.20
2019-02-16T10:38:11.495Z,26.68
2019-02-16T10:39:11.494Z,26.68
2019-02-16T10:40:32.492Z,26.21
2019-02-16T10:41:11.482Z,25.93
2019-02-16T10:42:11.465Z,26.03
2019-02-16T10:43:11.460Z,25.93
2019-02-16T10:44:11.445Z,25.93
2019-02-16T10:45:11.441Z,25.16
2019-02-16T10:46:32.435Z,25.93
2019-02-16T10:47:11.421Z,25.36
2019-02-16T10:48:11.415Z,24.96
2019-02-16T10:49:11.407Z,24.30
2019-02-16T10:50:11.391Z,23.44
2019-02-16T10:51:11.395Z,23.35
2019-02-16T10:52:32.386Z,23.54
2019-02-16T10:53:11.370Z,22.48
2019-02-16T10:54:11.359Z,23.15
2019-02-16T10:55:11.354Z,24.21
2019-02-16T10:56:11.344Z,24.32
2019-02-16T10:57:11.336Z,22.88
2019-02-16T10:58:32.340Z,22.39
2019-02-16T10:59:11.326Z,22.59
2019-02-16T11:00:11.311Z,22.49
2019-02-16T11:01:11.309Z,23.27
2019-02-16T11:02:11.302Z,23.46
2019-02-16T11:03:11.286Z,23.27
2019-02-16T11:04:38.306Z,22.32
2019-02-16T11:05:11.274Z,22.22
2019-02-16T11:06:11.268Z,22.03
2019-02-16T11:07:11.250Z,22.61
2019-02-16T11:08:11.246Z,22.42
2019-02-16T11:09:11.241Z,22.71
2019-02-16T11:10:32.247Z,22.13
2019-02-16T11:11:11.228Z,22.52
2019-02-16T11:12:11.221Z,22.43
2019-02-16T11:13:11.204Z,21.95
2019-02-16T11:14:11.206Z,20.89
2019-02-16T11:15:11.194Z,19.83
2019-02-16T11:16:32.195Z,19.06
2019-02-16T11:17:11.190Z,19.54
2019-02-16T11:18:11.176Z,19.54
2019-02-16T11:19:11.170Z,20.02
2019-02-16T11:20:11.149Z,20.50
2019-02-16T11:21:11.146Z,20.60
2019-02-16T11:22:32.148Z,18.97
2019-02-16T11:23:11.136Z,19.65
2019-02-16T11:24:11.125Z,19.55
2019-02-16T11:25:11.115Z,19.93
2019-02-16T11:26:11.117Z,19.45
2019-02-16T11:27:11.106Z,19.65
2019-02-16T11:28:32.157Z,19.18
2019-02-16T11:29:11.283Z,18.02
2019-02-16T11:30:11.095Z,18.21
2019-02-16T11:31:11.084Z,18.98
2019-02-16T11:32:11.074Z,19.18
2019-02-16T11:33:11.104Z,19.18
2019-02-16T11:34:32.064Z,18.51
2019-02-16T11:35:11.051Z,17.93
2019-02-16T11:36:11.040Z,18.03
2019-02-16T11:37:11.036Z,18.71
2019-02-16T11:38:11.032Z,18.71
2019-02-16T11:39:11.024Z,18.42
2019-02-16T11:40:32.028Z,17.75
2019-02-16T11:41:18.653Z,17.75
2019-02-16T11:42:11.002Z,17.46
2019-02-16T11:43:10.996Z,17.94
2019-02-16T11:44:10.997Z,18.43
2019-02-16T11:45:10.986Z,18.53
2019-02-16T11:46:31.988Z,19.01
2019-02-16T11:47:10.975Z,18.91
2019-02-16T11:48:11.568Z,19.10
2019-02-16T11:49:10.963Z,19.10
2019-02-16T11:50:10.951Z,18.82
2019-02-16T11:51:10.965Z,18.82
2019-02-16T11:52:31.943Z,18.53
2019-02-16T11:53:10.940Z,19.12
2019-02-16T11:54:10.926Z,19.50
2019-02-16T11:55:10.916Z,19.50
2019-02-16T11:56:10.915Z,19.98
2019-02-16T11:57:10.902Z,19.89
2019-02-16T11:58:31.908Z,19.89
2019-02-16T11:59:10.904Z,19.79
2019-02-16T12:00:10.889Z,19.70
2019-02-16T12:01:10.893Z,19.51
2019-02-16T12:02:10.887Z,18.63
2019-02-16T12:03:10.872Z,17.08
2019-02-16T12:04:31.873Z,16.50
2019-02-16T12:05:10.858Z,16.19
2019-02-16T12:06:10.871Z,17.82
2019-02-16T12:07:10.844Z,18.68
2019-02-16T12:08:10.838Z,19.26
2019-02-16T12:09:10.840Z,19.64
2019-02-16T12:10:31.855Z,20.31
2019-02-16T12:11:10.831Z,20.50
2019-02-16T12:12:10.821Z,20.78
2019-02-16T12:13:10.815Z,21.17
2019-02-16T12:14:10.810Z,21.26
2019-02-16T12:15:10.798Z,21.65
2019-02-16T12:16:31.799Z,20.98
2019-02-16T12:17:10.790Z,21.47
2019-02-16T12:18:10.780Z,22.62
2019-02-16T12:19:10.778Z,22.15
2019-02-16T12:20:10.772Z,22.73
2019-02-16T12:21:10.766Z,24.08
2019-02-16T12:22:31.761Z,24.19
2019-02-16T12:23:10.757Z,23.99
2019-02-16T12:24:10.746Z,21.68
2019-02-16T12:25:10.743Z,22.08
2019-02-16T12:26:10.733Z,22.56
2019-02-16T12:27:10.731Z,21.11
2019-02-16T12:28:31.729Z,20.06
2019-02-16T12:29:10.713Z,20.83
2019-02-16T12:30:10.716Z,21.03
2019-02-16T12:31:10.710Z,20.65
2019-02-16T12:32:10.686Z,20.65
2019-02-16T12:33:10.688Z,21.52
2019-02-16T12:34:31.685Z,21.04
2019-02-16T12:35:10.677Z,19.01
2019-02-16T12:36:10.668Z,17.95
2019-02-16T12:37:10.664Z,16.11
2019-02-16T12:38:10.660Z,15.14
2019-02-16T12:39:10.658Z,15.14
2019-02-16T12:40:31.655Z,16.39
2019-02-16T12:41:10.642Z,17.94
2019-02-16T12:42:10.635Z,18.42
2019-02-16T12:43:10.655Z,20.06
2019-02-16T12:44:10.632Z,20.54
2019-02-16T12:45:10.626Z,21.41
2019-02-16T12:46:31.616Z,21.23
2019-02-16T12:47:10.608Z,22.10
2019-02-16T12:48:10.617Z,20.95
2019-02-16T12:49:10.595Z,21.24
2019-02-16T12:50:10.586Z,21.44
2019-02-16T12:51:10.617Z,20.18
2019-02-16T12:52:31.586Z,20.28
2019-02-16T12:53:10.569Z,21.34